Latest Weather Observations for Warburto Point

IDS60801

Issued at 8:01 am CST Monday 1 May 2017 (issued every 30 minutes, with the page automatically refreshed every 10 minutes)

About weather observations | Map of weather stations | Latest weather observations for SA | Other Formats
Station Details ID: 022053 Name: WARBURTO POINT Lat: -34.00 Lon: 137.53 Height: 1.0 m
Data from the previous 72 hours. | See also: Recent months for locations in South Australia
Date/Time
CST
Temp
°C
App
Temp
°C
Dew
Point
°C
Rel
Hum
%
Delta-T
°C
Wind Press
QNH
hPa
Press
MSL
hPa
Rain since
9am
mm
Dir  Spd
km/h
Gust
km/h
Spd
kts
Gust
kts
01/08:00am - - - - - NW 24 28 13 15 - - -
01/07:30am - - - - - WNW 24 28 13 15 - - -
01/07:00am - - - - - WNW 24 30 13 16 - - -
01/06:30am - - - - - WNW 26 30 14 16 - - -
01/06:00am - - - - - WNW 24 32 13 17 - - -
01/05:30am - - - - - NW 26 32 14 17 - - -
01/05:00am - - - - - NW 24 30 13 16 - - -
01/04:30am - - - - - NW 24 28 13 15 - - -
01/04:00am - - - - - NW 22 26 12 14 - - -
01/03:30am - - - - - NW 20 24 11 13 - - -
01/03:00am - - - - - WNW 20 26 11 14 - - -
01/02:30am - - - - - WNW 19 22 10 12 - - -
01/02:00am - - - - - WNW 19 26 10 14 - - -
01/01:30am - - - - - WNW 20 26 11 14 - - -
01/01:00am - - - - - NW 20 26 11 14 - - -
01/12:30am - - - - - NW 24 28 13 15 - - -
01/12:00am - - - - - NW 26 30 14 16 - - -
 
Date/Time
CST
Temp
°C
App
Temp
°C
Dew
Point
°C
Rel
Hum
%
Delta-T
°C
Wind Press
QNH
hPa
Press
MSL
hPa
Rain since
9am
mm
Dir  Spd
km/h
Gust
km/h
Spd
kts
Gust
kts
30/11:30pm - - - - - NW 26 32 14 17 - - -
30/11:00pm - - - - - NE 15 17 8 9 - - -
30/10:30pm - - - - - NE 17 19 9 10 - - -
30/10:00pm - - - - - NE 17 19 9 10 - - -
30/09:30pm - - - - - NE 17 17 9 9 - - -
30/09:00pm - - - - - NE 15 17 8 9 - - -
30/08:30pm - - - - - NE 13 17 7 9 - - -
30/08:00pm - - - - - NE 15 17 8 9 - - -
30/07:30pm - - - - - NE 15 17 8 9 - - -
30/07:00pm - - - - - NE 15 17 8 9 - - -
30/06:30pm - - - - - NE 15 17 8 9 - - -
30/06:00pm - - - - - NE 13 15 7 8 - - -
30/05:30pm - - - - - NE 13 15 7 8 - - -
30/05:00pm - - - - - NE 13 13 7 7 - - -
30/04:30pm - - - - - NNE 9 9 5 5 - - -
30/04:00pm - - - - - NNE 9 11 5 6 - - -
30/03:30pm - - - - - NNE 9 13 5 7 - - -
30/03:00pm - - - - - N 13 17 7 9 - - -
30/02:30pm - - - - - N 17 22 9 12 - - -
30/02:00pm - - - - - N 11 15 6 8 - - -
30/01:30pm - - - - - N 13 17 7 9 - - -
30/01:00pm - - - - - N 20 28 11 15 - - -
30/12:30pm - - - - - N 19 24 10 13 - - -
30/12:00pm - - - - - NNE 17 20 9 11 - - -
30/11:30am - - - - - NE 17 22 9 12 - - -
30/11:00am - - - - - NNE 17 20 9 11 - - -
30/10:30am - - - - - NNE 17 22 9 12 - - -
30/10:00am - - - - - NNE 19 24 10 13 - - -
30/09:30am - - - - - NNE 15 19 8 10 - - -
30/09:00am - - - - - NE 13 17 7 9 - - -
30/08:30am - - - - - ENE 13 17 7 9 - - -
30/08:00am - - - - - E 15 17 8 9 - - -
30/07:30am - - - - - ENE 11 13 6 7 - - -
30/07:00am - - - - - E 13 15 7 8 - - -
30/06:30am - - - - - E 13 15 7 8 - - -
30/06:00am - - - - - ESE 13 15 7 8 - - -
30/05:30am - - - - - E 13 15 7 8 - - -
30/05:00am - - - - - E 9 11 5 6 - - -
30/04:30am - - - - - E 13 15 7 8 - - -
30/04:00am - - - - - E 13 15 7 8 - - -
30/03:30am - - - - - ENE 9 13 5 7 - - -
30/03:00am - - - - - ESE 11 15 6 8 - - -
30/02:30am - - - - - E 11 13 6 7 - - -
30/02:00am - - - - - E 9 11 5 6 - - -
30/01:30am - - - - - ESE 11 11 6 6 - - -
30/01:00am - - - - - ESE 9 11 5 6 - - -
30/12:30am - - - - - ESE 7 9 4 5 - - -
30/12:00am - - - - - E 7 9 4 5 - - -
 
Date/Time
CST
Temp
°C
App
Temp
°C
Dew
Point
°C
Rel
Hum
%
Delta-T
°C
Wind Press
QNH
hPa
Press
MSL
hPa
Rain since
9am
mm
Dir  Spd
km/h
Gust
km/h
Spd
kts
Gust
kts
29/11:30pm - - - - - E 11 13 6 7 - - -
29/11:00pm - - - - - ESE 7 9 4 5 - - -
29/10:30pm - - - - - ESE 7 9 4 5 - - -
29/10:00pm - - - - - ESE 9 11 5 6 - - -
29/09:30pm - - - - - ESE 7 7 4 4 - - -
29/09:00pm - - - - - SE 9 11 5 6 - - -
29/08:30pm - - - - - ESE 9 11 5 6 - - -
29/08:00pm - - - - - E 13 15 7 8 - - -
29/07:30pm - - - - - SE 13 15 7 8 - - -
29/07:00pm - - - - - SE 9 13 5 7 - - -
29/06:30pm - - - - - SE 11 13 6 7 - - -
29/06:00pm - - - - - SSE 11 11 6 6 - - -
29/05:30pm - - - - - S 9 11 5 6 - - -
29/05:00pm - - - - - W 7 7 4 4 - - -
29/04:30pm - - - - - W 7 9 4 5 - - -
29/04:00pm - - - - - W 11 13 6 7 - - -
29/03:30pm - - - - - SW 9 11 5 6 - - -
29/03:00pm - - - - - WNW 9 11 5 6 - - -
29/02:30pm - - - - - NW 9 11 5 6 - - -
29/02:00pm - - - - - NNW 9 13 5 7 - - -
29/01:30pm - - - - - N 11 15 6 8 - - -
29/01:00pm - - - - - N 13 15 7 8 - - -
29/12:30pm - - - - - N 13 17 7 9 - - -
29/12:00pm - - - - - N 13 17 7 9 - - -
29/11:30am - - - - - N 13 15 7 8 - - -
29/11:00am - - - - - NNE 11 13 6 7 - - -
29/10:30am - - - - - NE 9 15 5 8 - - -
29/10:00am - - - - - E 7 9 4 5 - - -
29/09:30am - - - - - NE 6 7 3 4 - - -
29/09:00am - - - - - NNE 9 11 5 6 - - -
29/08:30am - - - - - NE 11 11 6 6 - - -
29/08:00am - - - - - NE 9 11 5 6 - - -
29/07:30am - - - - - NE 9 11 5 6 - - -
29/07:00am - - - - - NE 11 13 6 7 - - -
29/06:30am - - - - - ENE 9 9 5 5 - - -
29/06:00am - - - - - NE 9 9 5 5 - - -
29/05:30am - - - - - NE 11 13 6 7 - - -
29/05:00am - - - - - ENE 11 11 6 6 - - -
29/04:30am - - - - - ENE 11 13 6 7 - - -
29/04:00am - - - - - E 11 13 6 7 - - -
29/03:30am - - - - - ESE 13 17 7 9 - - -
29/03:00am - - - - - SE 24 28 13 15 - - -
29/02:30am - - - - - SSE 19 24 10 13 - - -
29/02:00am - - - - - SE 13 15 7 8 - - -
29/01:30am - - - - - E 11 13 6 7 - - -
29/01:00am - - - - - E 11 13 6 7 - - -
29/12:30am - - - - - ESE 9 11 5 6 - - -
29/12:00am - - - - - ENE 11 13 6 7 - - -
 
Date/Time
CST
Temp
°C
App
Temp
°C
Dew
Point
°C
Rel
Hum
%
Delta-T
°C
Wind Press
QNH
hPa
Press
MSL
hPa
Rain since
9am
mm
Dir  Spd
km/h
Gust
km/h
Spd
kts
Gust
kts
28/11:30pm - - - - - NE 13 15 7 8 - - -
28/11:00pm - - - - - NE 13 15 7 8 - - -
28/10:30pm - - - - - NE 11 13 6 7 - - -
28/10:00pm - - - - - NE 11 13 6 7 - - -
28/09:30pm - - - - - E 7 9 4 5 - - -
28/09:00pm - - - - - E 7 11 4 6 - - -
28/08:30pm - - - - - ENE 11 15 6 8 - - -
28/08:00pm - - - - - S 15 19 8 10 - - -
28/07:30pm - - - - - SSE 17 20 9 11 - - -
28/07:00pm - - - - - SSE 17 19 9 10 - - -
28/06:30pm - - - - - SSE 17 22 9 12 - - -
28/06:00pm - - - - - S 20 24 11 13 - - -
28/05:30pm - - - - - SSW 17 22 9 12 - - -
28/05:00pm - - - - - SSW 19 22 10 12 - - -
28/04:30pm - - - - - SSW 19 24 10 13 - - -
28/04:00pm - - - - - SSW 17 22 9 12 - - -
28/03:30pm - - - - - SSW 15 22 8 12 - - -
28/03:00pm - - - - - S 20 26 11 14 - - -
28/02:30pm - - - - - SSW 17 24 9 13 - - -
28/02:00pm - - - - - WSW 17 24 9 13 - - -
28/01:30pm - - - - - SW 17 24 9 13 - - -
28/01:00pm - - - - - SW 17 22 9 12 - - -
28/12:30pm - - - - - SSW 19 24 10 13 - - -
28/12:00pm - - - - - SSW 17 24 9 13 - - -
28/11:30am - - - - - S 15 19 8 10 - - -
28/11:00am - - - - - SW 11 15 6 8 - - -
28/10:30am - - - - - W 15 20 8 11 - - -
28/10:00am - - - - - SSW 7 9 4 5 - - -
28/09:30am - - - - - SSW 13 19 7 10 - - -
28/09:00am - - - - - S 7 9 4 5 - - -
28/08:30am - - - - - ESE 2 9 1 5 - - -

Other Formats:

Comma delimited format used in spreadsheet applications
http://www.bom.gov.au/fwo/IDS60801/IDS60801.94666.axf

JavaScript Object Notation format (JSON) in row-major order
http://www.bom.gov.au/fwo/IDS60801/IDS60801.94666.json